Time;durP1;ratioP1;P1;durP2;ratioP2;P2;SDS_P1;SDS_P2;PMS_P1;PMS_P2;Temp;Humidity;BMP_temperature;BMP_pressure;BME280_temperature;BME280_humidity;BME280_pressure;Samples;Min_cycle;Max_cycle;Signal;HPM_P1;HPM_P2
2021/11/12 00:04:14;;;;;;;20.40;15.98;;;;;;;6.36;63.22;100563.97;5034533;28;20044;-74
2021/11/12 00:14:51;;;;;;;24.88;18.67;;;;;;;6.11;63.20;100511.88;5034362;28;20053;-73
2021/11/12 00:17:18;;;;;;;25.55;18.52;;;;;;;6.38;62.89;100551.56;5034358;28;20509;-74
2021/11/12 00:19:44;;;;;;;26.42;19.75;;;;;;;6.41;62.91;100554.88;5034255;28;20059;-73
2021/11/12 00:22:10;;;;;;;25.80;19.38;;;;;;;6.35;63.07;100551.81;5033965;28;20026;-74
2021/11/12 00:24:36;;;;;;;23.02;18.13;;;;;;;6.34;62.74;100550.16;5034329;28;20107;-74
2021/11/12 00:27:04;;;;;;;25.45;20.35;;;;;;;6.31;63.17;100545.16;5034184;28;20490;-74
2021/11/12 00:29:33;;;;;;;28.65;19.83;;;;;;;6.29;62.68;100538.38;5016155;28;20490;-74
2021/11/12 00:37:49;;;;;;;27.37;19.70;;;;;;;6.28;62.81;100540.16;5033858;28;20065;-73
2021/11/12 00:40:09;;;;;;;25.48;18.08;;;;;;;6.21;63.18;100525.88;5033228;28;20037;-74
2021/11/12 00:45:04;;;;;;;33.45;23.25;;;;;;;6.25;63.53;100529.09;5033799;28;20026;-73
2021/11/12 00:47:43;;;;;;;37.50;23.30;;;;;;;6.28;63.26;100521.81;5033634;28;20087;-73
2021/11/12 00:55:19;;;;;;;22.92;17.55;;;;;;;5.83;63.20;100462.59;5033902;28;20445;-73
2021/11/12 00:57:45;;;;;;;23.75;17.08;;;;;;;5.77;62.85;100450.81;5033710;28;20499;-73
2021/11/12 01:00:12;;;;;;;20.67;16.52;;;;;;;6.17;63.05;100513.97;5033372;28;20063;-73
2021/11/12 01:02:38;;;;;;;18.42;15.20;;;;;;;5.83;62.79;100466.06;5033371;28;20400;-73
2021/11/12 01:05:05;;;;;;;20.67;15.85;;;;;;;6.11;62.86;100522.34;5033513;28;20032;-73
2021/11/12 01:07:31;;;;;;;19.70;15.57;;;;;;;5.84;63.22;100477.38;5033485;28;20482;-73
2021/11/12 01:09:58;;;;;;;18.48;14.82;;;;;;;6.01;63.21;100509.16;5033450;28;20060;-73
2021/11/12 01:12:24;;;;;;;19.83;15.43;;;;;;;5.97;63.52;100504.31;5033290;28;20021;-73
2021/11/12 01:14:49;;;;;;;21.63;14.25;;;;;;;5.96;63.17;100500.00;5033199;28;20551;-73
2021/11/12 01:17:14;;;;;;;19.15;13.93;;;;;;;5.95;63.63;100501.81;5015545;28;20391;-73
2021/11/12 01:19:40;;;;;;;17.40;13.77;;;;;;;5.93;63.52;100497.63;5033267;28;20026;-73
2021/11/12 01:22:05;;;;;;;16.70;13.32;;;;;;;5.78;63.32;100472.63;5033140;28;20025;-73
2021/11/12 01:24:31;;;;;;;18.38;14.98;;;;;;;5.91;63.57;100489.03;5033227;28;20084;-73
2021/11/12 01:26:57;;;;;;;32.45;20.90;;;;;;;5.85;63.38;100486.88;5033133;28;20033;-73
2021/11/12 01:29:22;;;;;;;20.67;14.73;;;;;;;5.85;63.49;100497.38;5032942;28;20033;-73
2021/11/12 01:31:48;;;;;;;15.48;13.32;;;;;;;5.83;63.62;100491.41;5032726;28;20033;-73
2021/11/12 01:34:14;;;;;;;19.00;14.27;;;;;;;5.83;63.17;100486.19;5032903;28;20033;-74
2021/11/12 01:36:44;;;;;;;17.80;14.80;;;;;;;5.70;63.45;100468.84;5032862;28;20040;-73
2021/11/12 01:39:17;;;;;;;19.48;13.35;;;;;;;5.78;63.55;100483.94;5032939;28;20029;-73
2021/11/12 01:41:49;;;;;;;19.67;14.43;;;;;;;5.64;63.44;100460.63;5032765;28;20391;-73
2021/11/12 01:44:14;;;;;;;;;;;;;;;5.62;63.47;100492.19;5033143;28;20033;-73
2021/11/12 01:51:43;;;;;;;19.67;14.40;;;;;;;5.71;63.39;100477.53;5032846;28;20037;-73
2021/11/12 01:59:22;;;;;;;16.25;13.10;;;;;;;5.78;63.34;100483.09;5032807;28;20021;-73
2021/11/12 02:01:57;;;;;;;18.57;12.80;;;;;;;5.78;63.12;100468.22;5032402;28;20513;-73
2021/11/12 02:04:29;;;;;;;16.52;12.25;;;;;;;5.78;62.71;100483.94;5032208;28;20048;-73
2021/11/12 02:06:57;;;;;;;15.60;12.15;;;;;;;5.79;63.02;100467.25;5032425;28;20055;-73
2021/11/12 02:09:25;;;;;;;17.02;12.20;;;;;;;5.79;63.00;100469.88;5032206;28;20429;-73
2021/11/12 02:11:55;;;;;;;13.67;11.83;;;;;;;5.58;63.42;100434.94;5032386;28;20391;-73
2021/11/12 02:14:22;;;;;;;14.07;12.53;;;;;;;5.68;63.03;100457.66;5014446;28;20045;-73
2021/11/12 02:17:06;;;;;;;14.95;12.35;;;;;;;5.66;62.75;100463.97;5032244;28;20021;-73
2021/11/12 02:19:34;;;;;;;15.82;12.55;;;;;;;5.44;62.81;100433.44;5031525;28;20021;-73
2021/11/12 02:22:12;;;;;;;16.90;12.53;;;;;;;5.55;63.15;100453.53;5032085;28;20049;-73
2021/11/12 02:24:47;;;;;;;15.77;12.32;;;;;;;5.53;63.03;100458.88;5032068;28;20040;-73
2021/11/12 02:27:14;;;;;;;13.53;11.67;;;;;;;5.23;62.95;100419.44;5031994;28;20025;-73
2021/11/12 02:29:59;;;;;;;16.23;12.80;;;;;;;5.51;63.29;100468.66;5031959;28;20040;-73
2021/11/12 02:32:29;;;;;;;15.70;12.30;;;;;;;5.49;63.11;100469.72;5031945;28;20029;-73
2021/11/12 02:34:58;;;;;;;16.50;12.83;;;;;;;5.02;63.18;100398.41;5014066;28;20087;-73
2021/11/12 02:37:25;;;;;;;18.57;14.53;;;;;;;5.44;63.25;100470.09;5031847;28;20033;-73
2021/11/12 02:39:52;;;;;;;19.33;13.60;;;;;;;5.40;63.40;100451.19;5031758;28;20017;-73
2021/11/12 02:42:18;;;;;;;16.00;12.60;;;;;;;5.46;62.97;100454.25;5031339;28;20505;-73
2021/11/12 02:44:44;;;;;;;18.90;14.03;;;;;;;5.46;62.94;100454.25;5031647;28;20025;-73
2021/11/12 02:47:17;;;;;;;18.27;13.03;;;;;;;5.09;62.75;100397.78;5031808;28;20461;-73
2021/11/12 02:49:44;;;;;;;14.27;12.40;;;;;;;5.39;62.97;100452.13;5031542;28;20025;-73
2021/11/12 02:52:10;;;;;;;16.80;12.43;;;;;;;5.30;63.21;100444.19;5031227;28;20563;-73
2021/11/12 02:54:38;;;;;;;15.30;11.83;;;;;;;5.33;63.06;100447.38;5031291;28;20018;-73
2021/11/12 02:57:04;;;;;;;17.27;13.47;;;;;;;5.32;62.83;100450.97;5031184;28;20479;-73
2021/11/12 02:59:30;;;;;;;18.03;12.20;;;;;;;4.98;63.19;100389.13;5031382;28;20040;-73
2021/11/12 03:02:02;;;;;;;13.67;11.67;;;;;;;5.30;62.80;100452.03;5031545;28;20410;-73
2021/11/12 03:04:27;;;;;;;13.95;12.40;;;;;;;5.27;63.19;100439.19;5031250;28;20021;-73
2021/11/12 03:06:53;;;;;;;17.30;13.53;;;;;;;5.28;63.09;100435.63;5031616;28;20033;-73
2021/11/12 03:09:23;;;;;;;15.00;12.03;;;;;;;5.29;62.89;100438.13;5031416;28;20026;-73
2021/11/12 03:11:49;;;;;;;17.60;12.50;;;;;;;5.25;62.97;100433.25;5031514;28;20410;-73
2021/11/12 03:14:15;;;;;;;16.00;12.43;;;;;;;5.03;62.96;100407.91;5031282;28;20029;-73
2021/11/12 03:16:40;;;;;;;20.10;14.30;;;;;;;5.15;63.13;100434.91;5013589;28;20036;-73
2021/11/12 03:19:09;;;;;;;18.37;13.00;;;;;;;5.05;63.21;100427.78;5031235;28;20030;-73
2021/11/12 03:21:37;;;;;;;18.53;12.70;;;;;;;5.04;63.36;100433.13;5031383;28;20033;-73
2021/11/12 03:24:18;;;;;;;16.43;11.67;;;;;;;4.92;63.43;100421.00;5031159;28;20033;-80
2021/11/12 03:26:52;;;;;;;17.10;13.17;;;;;;;4.99;63.30;100422.19;5031432;28;20510;-79
2021/11/12 04:02:03;;;;;;;15.93;12.83;;;;;;;4.40;63.58;100317.81;5034821;28;20410;-79
2021/11/12 05:02:56;;;;;;;20.93;14.53;;;;;;;4.62;63.10;100379.75;5034012;28;20426;-73
2021/11/12 05:10:00;;;;;;;21.70;16.57;;;;;;;4.59;62.74;100385.25;4972565;28;20041;-73
2021/11/12 05:50:13;;;;;;;42.47;30.07;;;;;;;4.85;62.60;100391.03;5032847;28;20569;-74
2021/11/12 05:55:22;;;;;;;37.90;27.37;;;;;;;4.89;62.35;100388.06;5032752;28;20521;-73
2021/11/12 05:57:48;;;;;;;45.37;31.90;;;;;;;4.92;62.42;100394.84;5032345;28;20030;-73
2021/11/12 06:00:17;;;;;;;36.50;25.73;;;;;;;4.94;62.37;100396.38;5032328;28;20017;-73
2021/11/12 06:02:43;;;;;;;32.13;23.20;;;;;;;4.95;62.49;100398.06;5014253;28;20021;-73
2021/11/12 06:05:09;;;;;;;32.47;23.77;;;;;;;4.78;62.12;100377.63;5032417;28;20040;-73
2021/11/12 06:07:35;;;;;;;33.20;23.30;;;;;;;5.00;62.50;100398.53;5032550;28;20060;-73
2021/11/12 06:10:01;;;;;;;34.40;25.23;;;;;;;5.05;62.42;100396.38;5014398;28;20103;-73
2021/11/12 06:12:27;;;;;;;36.07;25.00;;;;;;;5.07;62.36;100402.31;5032104;28;20108;-73
2021/11/12 06:14:53;;;;;;;36.23;26.37;;;;;;;5.16;62.14;100402.53;5032149;28;20116;-74
2021/11/12 06:17:18;;;;;;;41.30;27.50;;;;;;;5.20;62.18;100399.56;5032186;28;20104;-73
2021/11/12 06:19:44;;;;;;;41.60;28.50;;;;;;;5.28;62.17;100388.50;5032109;28;20060;-73
2021/11/12 06:22:09;;;;;;;38.47;28.60;;;;;;;5.36;62.19;100391.31;5032157;28;20486;-74
2021/11/12 06:24:35;;;;;;;43.57;30.27;;;;;;;5.44;62.14;100404.63;5014205;28;20034;-73
2021/11/12 06:27:01;;;;;;;44.03;32.00;;;;;;;5.51;61.85;100397.94;5031993;28;20033;-74
2021/11/12 06:29:26;;;;;;;40.80;30.43;;;;;;;5.33;61.89;100360.16;5032054;28;20033;-74
2021/11/12 06:31:53;;;;;;;48.47;34.10;;;;;;;5.58;62.01;100391.25;5031967;28;20038;-74
2021/11/12 06:34:18;;;;;;;50.60;35.87;;;;;;;5.66;61.67;100391.44;5031693;28;20052;-74
2021/11/12 06:36:44;;;;;;;51.63;37.77;;;;;;;5.71;61.88;100394.50;5031716;28;20553;-73
2021/11/12 06:39:10;;;;;;;53.70;39.57;;;;;;;5.76;61.75;100396.75;5031715;28;20398;-73
2021/11/12 06:49:55;;;;;;;41.43;29.47;;;;;;;5.98;62.17;100385.38;5031666;28;20068;-74
2021/11/12 06:52:22;;;;;;;36.43;27.00;;;;;;;6.05;62.11;100381.28;5031523;28;20548;-74
2021/11/12 06:54:48;;;;;;;39.97;25.00;;;;;;;6.08;61.86;100383.66;5031419;28;20418;-73
2021/11/12 06:57:16;;;;;;;30.40;22.77;;;;;;;6.11;62.10;100383.41;5031334;28;20036;-73
2021/11/12 06:59:42;;;;;;;29.77;23.27;;;;;;;6.13;62.07;100381.47;5049710;28;20434;-73
2021/11/12 07:02:10;;;;;;;33.47;23.90;;;;;;;6.17;61.89;100377.63;5035142;28;20072;-73
2021/11/12 07:04:36;;;;;;;33.13;22.25;;;;;;;6.08;62.40;100359.22;5032936;28;20033;-74
2021/11/12 07:07:03;;;;;;;32.77;26.33;;;;;;;5.94;62.43;100336.78;5038679;28;20036;-74
2021/11/12 07:09:28;;;;;;;29.57;22.03;;;;;;;6.16;62.39;100355.00;5033571;28;20414;-73
2021/11/12 07:11:54;;;;;;;32.30;24.23;;;;;;;6.20;62.55;100355.56;5031084;28;20025;-73
2021/11/12 07:14:19;;;;;;;31.60;22.10;;;;;;;6.35;62.56;100370.00;5033698;28;20052;-73
2021/11/12 07:16:45;;;;;;;36.50;25.58;;;;;;;6.22;62.33;100328.25;5050919;28;20029;-73
2021/11/12 07:19:10;;;;;;;31.33;22.27;;;;;;;6.64;62.47;100364.88;5050963;28;20031;-73
2021/11/12 07:21:35;;;;;;;29.75;22.10;;;;;;;6.76;61.60;100379.59;5050981;28;20564;-73
2021/11/12 07:24:01;;;;;;;33.85;23.85;;;;;;;6.90;62.18;100375.75;5033056;28;20083;-73
2021/11/12 07:26:27;;;;;;;29.90;21.40;;;;;;;6.89;61.76;100351.31;5039417;28;20422;-73
2021/11/12 07:28:53;;;;;;;31.88;22.30;;;;;;;6.78;61.75;100308.59;5013063;28;20029;-73
2021/11/12 07:31:19;;;;;;;29.23;21.77;;;;;;;6.91;61.07;100319.66;5049074;28;20025;-73
2021/11/12 07:33:46;;;;;;;32.45;22.40;;;;;;;7.33;61.11;100360.50;5050796;28;20580;-73
2021/11/12 07:36:23;;;;;;;26.92;19.88;;;;;;;7.14;60.50;100320.25;5041437;28;20038;-73
2021/11/12 07:38:55;;;;;;;20.40;16.52;;;;;;;7.51;60.52;100372.97;5041209;28;20024;-73
2021/11/12 07:47:14;;;;;;;21.00;15.50;;;;;;;7.79;60.22;100361.63;5030584;28;20095;-73
2021/11/12 07:49:41;;;;;;;20.45;13.57;;;;;;;7.65;59.32;100320.81;5017211;28;20502;-73
2021/11/12 07:52:07;;;;;;;16.55;12.40;;;;;;;7.61;59.06;100292.34;5045580;28;20025;-73
2021/11/12 07:54:33;;;;;;;16.05;13.90;;;;;;;8.05;58.61;100353.13;5023989;28;20108;-73
2021/11/12 07:57:00;;;;;;;18.63;13.45;;;;;;;7.76;58.97;100301.44;5031674;28;20056;-73
2021/11/12 07:59:26;;;;;;;22.40;15.98;;;;;;;8.07;59.35;100333.59;5030392;28;20087;-73
2021/11/12 08:01:51;;;;;;;20.00;15.65;;;;;;;8.21;58.92;100343.69;5030649;28;20025;-73
2021/11/12 08:04:18;;;;;;;19.20;15.38;;;;;;;8.16;58.78;100339.81;5029791;28;20117;-73
2021/11/12 08:06:44;;;;;;;18.08;15.35;;;;;;;8.37;58.83;100358.09;5030461;28;20048;-73
2021/11/12 08:09:15;;;;;;;17.05;13.02;;;;;;;8.39;58.94;100348.25;5013955;28;20041;-73
2021/11/12 08:11:45;;;;;;;19.83;14.38;;;;;;;8.48;58.45;100350.84;5030586;28;20060;-74
2021/11/12 08:19:15;;;;;;;16.25;13.95;;;;;;;8.37;58.07;100316.81;5034324;28;20034;-74
2021/11/12 08:22:01;;;;;;;21.27;15.73;;;;;;;8.59;58.17;100342.75;5037842;28;20474;-73
2021/11/12 08:32:44;;;;;;;27.30;17.73;;;;;;;8.56;57.83;100313.25;5031856;28;20033;-74
2021/11/12 08:42:40;;;;;;;15.25;12.27;;;;;;;9.00;57.82;100338.00;5032912;28;20104;-74
2021/11/12 08:45:43;;;;;;;15.60;12.80;;;;;;;9.02;57.81;100348.38;5032050;28;20025;-74
2021/11/12 08:48:04;;;;;;;14.63;12.35;;;;;;;9.07;57.81;100341.69;5011671;28;20661;-74
2021/11/12 08:50:29;;;;;;;15.90;13.63;;;;;;;9.16;57.59;100332.06;5033141;28;20033;-74
2021/11/12 08:53:04;;;;;;;16.05;12.68;;;;;;;9.24;57.26;100340.88;5015572;28;20030;-74
2021/11/12 08:55:31;;;;;;;14.23;11.93;;;;;;;9.10;57.36;100316.84;5013309;28;20029;-74
2021/11/12 08:57:58;;;;;;;15.43;13.48;;;;;;;9.36;57.39;100338.84;5026753;28;20079;-73
2021/11/12 09:00:24;;;;;;;17.48;13.23;;;;;;;9.19;56.95;100294.88;5030374;28;20037;-74
2021/11/12 09:02:51;;;;;;;13.85;11.23;;;;;;;9.53;56.93;100338.00;5029097;28;20464;-74
2021/11/12 09:05:20;;;;;;;13.85;10.20;;;;;;;9.62;56.68;100341.53;5031262;28;20034;-74
2021/11/12 09:07:47;;;;;;;12.80;11.05;;;;;;;9.55;56.83;100307.03;5012440;28;20033;-73
2021/11/12 09:10:14;;;;;;;14.18;11.15;;;;;;;9.53;56.36;100295.00;5031796;28;20040;-73
2021/11/12 09:32:55;;;;;;;9.70;7.80;;;;;;;10.22;56.56;100304.72;5031345;28;20489;-79
2021/11/12 09:35:21;;;;;;;9.25;8.20;;;;;;;9.87;55.87;100252.91;5031312;28;20506;-79
2021/11/12 09:37:46;;;;;;;10.45;9.27;;;;;;;9.87;56.43;100227.34;5032284;28;20057;-80
2021/11/12 09:40:12;;;;;;;10.35;7.32;;;;;;;10.42;56.44;100298.25;5031431;28;20112;-80
2021/11/12 09:42:41;;;;;;;10.90;7.90;;;;;;;9.90;56.00;100201.66;5031262;28;21203;-79
2021/11/12 09:45:09;;;;;;;12.68;10.60;;;;;;;10.41;56.30;100264.94;5027378;28;20065;-80
2021/11/12 09:47:36;;;;;;;12.45;10.88;;;;;;;10.63;55.60;100287.28;5026979;28;20036;-77
2021/11/12 09:50:06;;;;;;;15.75;10.25;;;;;;;10.71;55.95;100283.84;5029012;28;20025;-78
2021/11/12 09:52:32;;;;;;;12.18;9.07;;;;;;;10.55;56.20;100237.09;5029236;28;20406;-79
2021/11/12 09:54:57;;;;;;;17.73;13.30;;;;;;;10.82;55.54;100278.25;5046183;28;20037;-79
2021/11/12 09:57:23;;;;;;;15.48;9.55;;;;;;;10.86;55.81;100268.19;5034403;28;20025;-78
2021/11/12 09:59:55;;;;;;;18.40;13.07;;;;;;;10.59;55.92;100222.56;5049495;28;20031;-78
2021/11/12 10:02:21;;;;;;;16.02;13.15;;;;;;;10.86;56.09;100261.09;5051897;28;20029;-79
2021/11/12 10:04:47;;;;;;;14.45;9.48;;;;;;;10.91;55.74;100250.88;5051851;28;20040;-80
2021/11/12 10:07:15;;;;;;;12.02;8.73;;;;;;;10.99;55.75;100253.50;5052049;28;20058;-78
2021/11/12 10:09:44;;;;;;;12.10;8.43;;;;;;;11.07;55.50;100257.97;5048844;28;20529;-78
2021/11/12 10:12:10;;;;;;;15.18;11.20;;;;;;;11.09;55.60;100264.75;5060682;28;20037;-79
2021/11/12 10:17:14;;;;;;;12.55;10.65;;;;;;;10.75;55.32;100184.81;5051403;28;20029;-77
2021/11/12 10:19:45;;;;;;;12.27;10.60;;;;;;;11.18;55.77;100243.66;5051484;28;20508;-77
2021/11/12 10:22:12;;;;;;;16.52;13.10;;;;;;;11.25;55.32;100249.94;5033881;28;20067;-78
2021/11/12 10:24:41;;;;;;;10.00;8.40;;;;;;;11.29;55.36;100228.28;5051492;28;20501;-75
2021/11/12 10:27:12;;;;;;;12.85;8.95;;;;;;;11.30;55.25;100218.53;5051580;28;20516;-73
2021/11/12 10:29:46;;;;;;;11.57;9.60;;;;;;;11.41;54.79;100220.84;5027434;28;20132;-75
2021/11/12 10:32:18;;;;;;;13.65;11.48;;;;;;;11.04;55.15;100149.97;5048797;28;20033;-76
2021/11/12 10:34:46;;;;;;;12.98;10.15;;;;;;;11.56;54.72;100224.47;5046400;28;20064;-73
2021/11/12 10:37:23;;;;;;;17.10;12.70;;;;;;;11.60;54.54;100215.19;5049199;28;20033;-75
2021/11/12 10:40:02;;;;;;;12.25;10.23;;;;;;;11.21;54.70;100140.25;5044180;28;20124;-74
2021/11/12 10:42:30;;;;;;;14.15;10.68;;;;;;;11.63;54.36;100203.44;5018668;28;20031;-74
2021/11/12 10:44:58;;;;;;;12.10;8.80;;;;;;;11.32;54.38;100148.66;5031269;28;20090;-74
2021/11/12 10:47:25;;;;;;;10.77;9.40;;;;;;;11.57;54.28;100181.16;5048621;28;20402;-74
2021/11/12 10:50:04;;;;;;;13.48;9.43;;;;;;;11.70;54.28;100199.97;5049049;28;20025;-74
2021/11/12 11:02:42;;;;;;;12.25;8.98;;;;;;;11.72;54.32;100168.88;5032080;28;20044;-73
2021/11/12 11:05:20;;;;;;;11.27;7.75;;;;;;;11.53;54.35;100149.91;5049424;28;20033;-75
2021/11/12 11:07:47;;;;;;;13.38;8.32;;;;;;;11.72;54.01;100181.28;5051031;28;20489;-73
2021/11/12 11:10:40;;;;;;;13.82;10.45;;;;;;;11.68;54.43;100174.69;5050695;28;20036;-75
2021/11/12 11:13:10;;;;;;;13.98;11.60;;;;;;;11.67;54.49;100168.56;5045421;28;20167;-75
2021/11/12 11:15:40;;;;;;;15.93;12.35;;;;;;;11.43;54.89;100126.31;5050735;28;20108;-75
2021/11/12 11:21:11;;;;;;;13.27;10.27;;;;;;;11.67;54.77;100162.44;5047677;28;20493;-75
2021/11/12 11:24:03;;;;;;;8.90;7.80;;;;;;;11.62;54.57;100149.72;5048050;28;20417;-80
2021/11/12 11:26:43;;;;;;;10.48;7.95;;;;;;;11.70;54.98;100156.81;5029337;28;20030;-79
2021/11/12 11:29:12;;;;;;;10.27;7.32;;;;;;;11.71;54.82;100158.47;5043584;28;20162;-79
2021/11/12 11:31:38;;;;;;;10.80;6.70;;;;;;;11.73;54.80;100159.13;5048386;28;20406;-80
2021/11/12 11:34:05;;;;;;;12.73;8.32;;;;;;;11.74;54.90;100151.00;5053774;28;20021;-78
2021/11/12 11:36:34;;;;;;;10.25;6.63;;;;;;;11.70;55.01;100151.53;5050513;28;20029;-80
2021/11/12 11:39:04;;;;;;;10.85;6.32;;;;;;;11.65;54.80;100148.56;5050406;28;20025;-79
2021/11/12 11:41:30;;;;;;;20.67;13.35;;;;;;;11.28;55.00;100097.09;5043147;28;20108;-79
2021/11/12 11:43:56;;;;;;;16.88;12.25;;;;;;;11.63;54.32;100145.25;5023780;28;20021;-78
2021/11/12 11:46:31;;;;;;;17.02;11.68;;;;;;;11.31;54.93;100104.69;5050484;28;20091;-79
2021/11/12 11:48:58;;;;;;;29.55;17.50;;;;;;;11.60;54.45;100145.59;5032706;28;20083;-79
2021/11/12 11:51:37;;;;;;;20.88;12.52;;;;;;;11.59;55.28;100139.50;5050139;28;20112;-79
2021/11/12 11:54:08;;;;;;;32.78;18.02;;;;;;;11.52;55.00;100122.66;5048249;28;20033;-79
2021/11/12 11:56:37;;;;;;;21.77;13.55;;;;;;;11.64;54.75;100141.63;5052145;28;20159;-78
2021/11/12 11:59:10;;;;;;;20.98;14.77;;;;;;;11.67;55.05;100144.75;5054229;28;20043;-78
2021/11/12 12:01:45;;;;;;;29.35;16.42;;;;;;;11.59;55.00;100126.25;5050468;28;20032;-79
2021/11/12 12:04:14;;;;;;;28.70;17.20;;;;;;;11.69;54.93;100139.28;5053903;28;20031;-79
2021/11/12 12:07:01;;;;;;;25.83;16.35;;;;;;;11.70;54.38;100133.84;5050419;28;20028;-78
2021/11/12 12:09:38;;;;;;;32.42;21.10;;;;;;;11.69;54.90;100134.81;5053659;28;20029;-78
2021/11/12 12:12:04;;;;;;;35.13;20.65;;;;;;;11.49;54.95;100093.91;5051107;28;20025;-79
2021/11/12 12:14:32;;;;;;;36.38;20.30;;;;;;;11.37;55.14;100088.16;5052301;28;20025;-78
2021/11/12 12:17:03;;;;;;;30.50;18.13;;;;;;;11.72;55.14;100134.47;5053851;28;20024;-79
2021/11/12 12:19:41;;;;;;;32.13;16.17;;;;;;;11.24;55.39;100061.44;5053693;28;20021;-78
2021/11/12 12:22:35;;;;;;;24.77;15.70;;;;;;;11.72;55.46;100129.19;5052998;28;20025;-77
2021/11/12 13:26:00;;;;;;;10.85;6.88;;;;;;;11.95;54.12;100118.75;5052342;28;20132;-75
2021/11/12 13:28:43;;;;;;;7.28;6.22;;;;;;;11.63;54.21;100060.63;5029372;28;20026;-75
2021/11/12 13:31:14;;;;;;;11.18;7.30;;;;;;;11.98;55.08;100115.75;5040757;28;20409;-76
2021/11/12 13:33:43;;;;;;;10.32;8.35;;;;;;;11.99;54.65;100114.75;5051989;28;20425;-75
2021/11/12 13:36:08;;;;;;;12.35;7.75;;;;;;;12.01;55.26;100114.56;5050973;28;20131;-75
2021/11/12 13:38:57;;;;;;;13.57;8.50;;;;;;;11.91;55.08;100090.97;5051990;28;20103;-75
2021/11/12 13:41:34;;;;;;;12.57;8.73;;;;;;;12.12;55.39;100106.25;5051327;28;20028;-75
2021/11/12 13:44:02;;;;;;;9.27;7.03;;;;;;;12.17;55.38;100108.38;5052233;28;20024;-75
2021/11/12 13:47:02;;;;;;;8.60;6.72;;;;;;;11.82;55.29;100056.75;5050299;28;20031;-75
2021/11/12 13:49:43;;;;;;;9.60;7.15;;;;;;;11.56;55.42;100076.34;5052190;28;20032;-75
2021/11/12 13:52:13;;;;;;;10.05;8.57;;;;;;;12.22;55.18;100114.78;5050772;28;20113;-75
2021/11/12 13:54:51;;;;;;;9.23;7.25;;;;;;;12.20;55.83;100113.31;5051439;28;20382;-75
2021/11/12 13:57:25;;;;;;;13.15;9.52;;;;;;;12.21;55.09;100120.25;5052190;28;20095;-75
2021/11/12 13:59:58;;;;;;;9.05;7.30;;;;;;;12.16;55.40;100112.00;5048603;28;20080;-75
2021/11/12 14:02:25;;;;;;;24.65;18.55;;;;;;;11.98;55.64;100084.00;5050991;28;20025;-75
2021/11/12 14:04:50;;;;;;;18.20;13.93;;;;;;;12.15;55.64;100113.00;5050781;28;20547;-75
2021/11/12 14:07:24;;;;;;;17.80;13.73;;;;;;;11.75;55.08;100053.94;5034323;28;20104;-75
2021/11/12 14:10:19;;;;;;;14.05;10.57;;;;;;;12.14;55.58;100114.84;5052089;28;20025;-75
2021/11/12 14:12:57;;;;;;;15.60;11.57;;;;;;;11.72;55.83;100046.38;5032759;28;20037;-75
2021/11/12 14:15:33;;;;;;;14.30;11.38;;;;;;;12.16;55.44;100117.31;5051057;28;20504;-75
2021/11/12 14:18:17;;;;;;;12.80;10.40;;;;;;;12.13;55.31;100115.00;5050186;28;20028;-75
2021/11/12 14:20:53;;;;;;;17.15;11.48;;;;;;;12.05;55.62;100116.69;5050535;28;20029;-75
2021/11/12 14:23:22;;;;;;;14.50;11.10;;;;;;;11.79;55.45;100076.44;5051021;28;20053;-78
2021/11/12 14:32:04;;;;;;;17.65;11.95;;;;;;;11.91;55.84;100114.78;5039297;28;20029;-79
2021/11/12 14:37:26;;;;;;;21.73;14.32;;;;;;;11.74;56.81;100113.16;5050242;28;20115;-78
2021/11/12 14:40:02;;;;;;;20.45;12.80;;;;;;;11.39;56.76;100062.38;5050628;28;20032;-78
2021/11/12 14:53:59;;;;;;;26.15;19.23;;;;;;;11.36;57.91;100115.59;5035393;28;20025;-78
2021/11/12 14:56:12;;;;;;;25.25;18.42;;;;;;;11.24;57.46;100103.72;5040569;28;20037;-79
2021/11/12 14:58:41;;;;;;;35.50;24.60;;;;;;;11.26;58.15;100104.38;5032283;28;20029;-78
2021/11/12 15:01:10;;;;;;;29.30;22.08;;;;;;;11.12;58.18;100092.66;5041570;28;20086;-78
2021/11/12 15:03:36;;;;;;;34.72;20.98;;;;;;;11.26;58.20;100128.16;5049981;28;20083;-78
2021/11/12 15:06:02;;;;;;;40.13;25.77;;;;;;;11.23;58.25;100127.69;5052040;28;20032;-77
2021/11/12 15:08:29;;;;;;;41.42;24.52;;;;;;;11.13;58.34;100127.81;5049789;28;20052;-78
2021/11/12 15:10:56;;;;;;;50.08;27.85;;;;;;;11.09;58.89;100129.16;5048948;28;20012;-79
2021/11/12 15:13:21;;;;;;;45.70;28.83;;;;;;;11.00;59.10;100120.41;5022186;28;20021;-78
2021/11/12 15:15:48;;;;;;;42.50;27.85;;;;;;;10.64;59.51;100082.97;5046865;28;20512;-79
2021/11/12 15:18:14;;;;;;;51.13;27.98;;;;;;;10.61;59.67;100083.28;5050604;28;20025;-80
2021/11/12 15:20:41;;;;;;;47.67;27.00;;;;;;;10.68;59.88;100107.22;5048500;28;20163;-79
2021/11/12 15:31:07;;;;;;;64.05;35.22;;;;;;;10.38;60.81;100106.84;5055328;28;20102;-78
2021/11/12 15:33:33;;;;;;;57.95;37.22;;;;;;;10.67;60.64;100147.81;5053680;28;20020;-78
2021/11/12 15:36:03;;;;;;;54.63;36.05;;;;;;;10.30;60.48;100093.63;5054753;28;20429;-78
2021/11/12 15:38:36;;;;;;;56.13;36.45;;;;;;;9.76;60.62;100016.66;5050640;28;20035;-79
2021/11/12 15:46:25;;;;;;;58.88;39.45;;;;;;;10.48;61.31;100155.06;5053647;28;20029;-78
2021/11/12 15:48:50;;;;;;;71.23;44.63;;;;;;;10.32;61.77;100135.69;5054175;28;20044;-79
2021/11/12 15:51:31;;;;;;;77.00;50.38;;;;;;;10.11;61.42;100109.72;5056247;28;20053;-78
2021/11/12 16:14:55;;;;;;;83.13;53.63;;;;;;;10.12;61.67;100169.41;5055237;28;20031;-78
2021/11/12 16:25:17;;;;;;;95.78;59.90;;;;;;;9.98;61.40;100178.75;5056508;28;20417;-75
2021/11/12 16:27:55;;;;;;;110.22;68.13;;;;;;;9.98;61.57;100188.50;5039190;28;20021;-75
2021/11/12 16:30:25;;;;;;;110.63;71.47;;;;;;;9.94;61.68;100197.72;5057274;28;20408;-74
2021/11/12 16:32:52;;;;;;;109.38;71.68;;;;;;;9.90;61.85;100191.91;5057288;28;20390;-75
2021/11/12 16:35:22;;;;;;;115.32;75.30;;;;;;;9.84;61.83;100193.38;5056991;28;20120;-74
2021/11/12 16:37:52;;;;;;;112.45;72.93;;;;;;;9.78;61.98;100194.00;5054153;28;20394;-74
2021/11/12 17:04:20;;;;;;;74.78;54.35;;;;;;;9.04;62.17;100170.78;5030752;28;20402;-74
2021/11/12 17:07:01;;;;;;;68.82;50.50;;;;;;;9.21;62.48;100214.69;5053533;28;20028;-74
2021/11/12 17:15:01;;;;;;;63.72;45.72;;;;;;;9.03;62.45;100200.72;5053526;28;20025;-75
2021/11/12 17:47:12;;;;;;;66.78;44.22;;;;;;;8.51;62.44;100199.72;5052767;28;20036;-74
2021/11/12 18:17:00;;;;;;;65.57;46.55;;;;;;;8.13;63.23;100214.69;5051988;28;20033;-75
2021/11/12 21:44:23;;;;;;;35.65;26.75;;;;;;;5.91;63.96;100158.81;5052604;28;20023;-74
2021/11/12 21:46:49;;;;;;;33.53;26.95;;;;;;;6.27;63.95;100231.66;5052736;28;20025;-74
2021/11/12 21:49:15;;;;;;;40.17;26.65;;;;;;;5.89;63.53;100165.94;5052716;28;20029;-74
2021/11/12 21:51:42;;;;;;;34.58;25.27;;;;;;;6.25;63.71;100230.97;5052581;28;20417;-74
2021/11/12 21:54:09;;;;;;;29.10;23.60;;;;;;;5.97;63.93;100185.34;5052709;28;20013;-74
2021/11/12 21:56:35;;;;;;;37.40;26.17;;;;;;;6.16;63.55;100236.19;5052692;28;20032;-74
2021/11/12 21:59:02;;;;;;;27.80;22.35;;;;;;;5.82;63.73;100173.50;5052573;28;20516;-74
2021/11/12 22:01:28;;;;;;;30.30;24.48;;;;;;;5.71;63.71;100163.94;5052527;28;20516;-74
2021/11/12 22:03:54;;;;;;;31.27;23.27;;;;;;;5.65;63.74;100147.94;5052014;28;20543;-74
2021/11/12 22:06:20;;;;;;;31.10;23.90;;;;;;;6.11;63.51;100226.09;5052221;28;20024;-74
2021/11/12 22:08:46;;;;;;;27.40;21.77;;;;;;;6.07;63.41;100216.00;5052293;28;20025;-74
2021/11/12 22:11:12;;;;;;;29.55;23.45;;;;;;;5.72;63.65;100157.75;5052379;28;20036;-74
2021/11/12 22:13:39;;;;;;;29.13;24.20;;;;;;;6.11;63.36;100220.84;5052223;28;20489;-74
2021/11/12 22:16:07;;;;;;;27.30;21.85;;;;;;;6.08;63.44;100210.63;5052168;28;20021;-74
2021/11/12 22:18:34;;;;;;;27.05;20.77;;;;;;;6.07;63.48;100223.88;5034382;28;20534;-74
2021/11/12 22:21:00;;;;;;;28.15;23.77;;;;;;;6.06;63.65;100212.56;5051998;28;20059;-74
2021/11/12 22:23:26;;;;;;;29.10;21.65;;;;;;;5.75;63.59;100173.22;5051979;28;20154;-74